Pagina principale
METAR-TAF:

METAR-TAF

Aeroporti :

Aeroporto di Budapest-Ferihegy

Budapest, Ungheria

latitudine: 47-26N, longitudine: 019-16E, altezza: 151 m

Osservazione

Il bollettino è stato emesso 14 minuti fa, alle 09:30 UTC
Vento 8 kt da sud-est, variando fra est/sud-est e sud
Temperature 19°C
Umidità 43%
Pressione 1023 hPa
Visibilità 10 km o più
nessuna nube inferiore a 1500 m e nessun cumulonembo

METAR: LHBP 170930Z 14008KT 110V170 CAVOK 19/06 Q1023 NOSIG

Ora: 11:44 (09:44 UTC)

Previsione

Il bollettino è stato emesso 4 ore e 29 minuti fa, alle 05:15 UTC
Previsione valida dal 17 alle 06 UTC al 18 alle 06 UTC
Vento 7 kt da est
Visibilità 10 km o più
nessuna nube inferiore a 1500 m e nessun cumulonembo
Evoluzione graduale
dal 17 alle 16 UTC al 17 alle 18 UTC
Vento 3 kt da direzioni variabili

TAF: LHBP 170515Z 1706/1806 10007KT CAVOK BECMG 1716/1718 VRB03KT

Osservazioni e previsioni meteorologiche di più di 4000 aeroporti (messaggi METAR e TAF).

Le stazioni disponibili sono rappresentate dai dischi gialli e rossi sulla carta.

Puntare il mouse per vedere il nome della stazione.

Clicca sopra per visualizzare le osservazioni e previsioni meteorologiche.

Per cambiare la mappa : fare clic sui pulsanti verdi con una croce nera per ingrandire, il pulsante verde con un trattino per diminuire, o sulla freccia verde per le mappe adiacenti.


METAR-TAF: